Time;durP1;ratioP1;P1;durP2;ratioP2;P2;SDS_P1;SDS_P2;PMS_P1;PMS_P2;Temp;Humidity;BMP_temperature;BMP_pressure;BME280_temperature;BME280_humidity;BME280_pressure;Samples;Min_cycle;Max_cycle;Signal;HPM_P1;HPM_P2
2022/03/20 00:00:29;;;;;;;5.05;2.63;;;7.40;55.90;;;;;;5024553;28;20022;-69
2022/03/20 00:02:55;;;;;;;4.95;3.28;;;7.40;55.80;;;;;;5020964;28;20037;-71
2022/03/20 00:05:21;;;;;;;4.50;2.92;;;7.40;56.10;;;;;;5024993;28;20170;-70
2022/03/20 00:07:46;;;;;;;5.10;3.33;;;7.40;56.00;;;;;;5023286;28;20491;-70
2022/03/20 00:10:14;;;;;;;4.85;3.00;;;7.30;56.20;;;;;;5022321;28;20030;-68
2022/03/20 00:12:39;;;;;;;4.65;2.33;;;7.30;56.10;;;;;;5027981;28;20021;-70
2022/03/20 00:15:06;;;;;;;4.82;3.00;;;7.30;56.20;;;;;;5026099;28;20112;-71
2022/03/20 00:17:32;;;;;;;5.22;3.13;;;7.30;56.30;;;;;;5024093;28;20029;-71
2022/03/20 00:19:57;;;;;;;3.35;2.33;;;7.20;56.40;;;;;;5026380;28;20033;-70
2022/03/20 00:22:24;;;;;;;7.78;3.72;;;7.30;56.30;;;;;;5019577;28;20071;-70
2022/03/20 00:24:50;;;;;;;4.40;2.70;;;7.20;56.80;;;;;;5024271;28;20154;-70
2022/03/20 00:27:16;;;;;;;6.57;3.88;;;7.20;56.80;;;;;;5020179;28;20541;-70
2022/03/20 00:29:42;;;;;;;6.20;4.05;;;7.10;57.20;;;;;;5024818;28;20025;-70
2022/03/20 00:32:10;;;;;;;7.22;4.45;;;7.00;57.50;;;;;;5023844;28;20037;-70
2022/03/20 00:34:36;;;;;;;7.45;4.00;;;7.00;57.80;;;;;;5023253;28;20143;-70
2022/03/20 00:37:01;;;;;;;5.53;3.90;;;6.90;57.70;;;;;;5024708;28;20030;-70
2022/03/20 00:39:27;;;;;;;6.40;3.45;;;7.00;57.60;;;;;;5022938;28;20052;-69
2022/03/20 00:41:52;;;;;;;5.03;3.40;;;7.00;57.50;;;;;;5026738;28;20499;-69
2022/03/20 00:44:18;;;;;;;5.93;2.90;;;7.00;57.30;;;;;;5022550;28;20033;-69
2022/03/20 00:46:43;;;;;;;4.70;3.33;;;6.90;57.10;;;;;;5028484;28;20029;-69
2022/03/20 00:49:10;;;;;;;6.68;3.80;;;6.90;57.20;;;;;;5028939;28;20084;-68
2022/03/20 00:51:36;;;;;;;6.50;4.00;;;6.80;57.60;;;;;;5029366;28;20030;-69
2022/03/20 00:54:01;;;;;;;7.20;4.20;;;6.80;57.60;;;;;;5032070;28;20053;-69
2022/03/20 00:56:27;;;;;;;6.47;3.50;;;6.80;57.60;;;;;;5030072;28;20056;-69
2022/03/20 00:58:53;;;;;;;4.80;3.60;;;6.70;57.60;;;;;;5028759;28;20112;-69
2022/03/20 01:01:18;;;;;;;6.88;4.32;;;6.70;57.80;;;;;;5028733;28;20041;-69
2022/03/20 01:03:44;;;;;;;7.72;4.85;;;6.60;58.00;;;;;;5025677;28;20030;-69
2022/03/20 01:06:10;;;;;;;5.97;3.83;;;6.60;58.00;;;;;;5029179;28;20037;-69
2022/03/20 01:08:39;;;;;;;6.70;4.10;;;6.50;58.10;;;;;;5027159;28;20021;-69
2022/03/20 01:11:06;;;;;;;7.53;4.80;;;6.50;58.10;;;;;;5027464;28;20025;-69
2022/03/20 01:13:33;;;;;;;7.72;4.70;;;6.40;58.30;;;;;;5027910;28;20055;-68
2022/03/20 01:15:59;;;;;;;6.57;4.80;;;6.40;58.40;;;;;;5024781;28;20108;-68
2022/03/20 01:18:25;;;;;;;9.13;5.10;;;6.40;58.50;;;;;;5026705;28;20129;-69
2022/03/20 01:20:51;;;;;;;8.30;5.40;;;6.30;58.50;;;;;;5028424;28;20021;-70
2022/03/20 01:23:17;;;;;;;7.97;5.47;;;6.30;58.90;;;;;;5022787;28;20472;-70
2022/03/20 01:25:42;;;;;;;7.20;5.18;;;6.30;59.00;;;;;;5027492;28;20026;-70
2022/03/20 01:28:09;;;;;;;8.48;5.43;;;6.20;59.10;;;;;;5027315;28;20021;-70
2022/03/20 01:30:34;;;;;;;8.20;5.75;;;6.20;59.20;;;;;;5024779;28;20025;-71
2022/03/20 01:33:01;;;;;;;8.23;5.25;;;6.20;59.50;;;;;;5025109;28;20029;-69
2022/03/20 01:35:27;;;;;;;8.07;5.93;;;6.10;59.60;;;;;;5026889;28;20026;-70
2022/03/20 01:37:52;;;;;;;7.60;5.57;;;6.00;60.00;;;;;;5022247;28;20158;-69
2022/03/20 01:40:18;;;;;;;8.20;5.35;;;6.00;60.00;;;;;;5024955;28;20060;-69
2022/03/20 01:42:44;;;;;;;8.85;5.55;;;6.10;60.00;;;;;;5021652;28;20033;-68
2022/03/20 01:45:18;;;;;;;7.53;5.40;;;6.00;60.80;;;;;;5024652;28;20025;-69
2022/03/20 01:47:47;;;;;;;8.55;4.90;;;5.90;61.20;;;;;;5024164;28;20026;-69
2022/03/20 01:50:16;;;;;;;8.05;5.30;;;5.90;61.00;;;;;;5026167;28;20026;-69
2022/03/20 01:52:44;;;;;;;7.45;4.63;;;5.90;61.70;;;;;;5023322;28;20084;-68
2022/03/20 01:55:09;;;;;;;7.82;5.10;;;5.90;61.70;;;;;;5026234;28;20040;-68
2022/03/20 01:57:37;;;;;;;7.40;5.10;;;5.90;62.40;;;;;;5029269;28;20033;-68
2022/03/20 02:00:09;;;;;;;8.70;5.38;;;5.90;62.40;;;;;;5029898;28;20381;-67
2022/03/20 02:02:35;;;;;;;7.28;4.40;;;5.90;62.90;;;;;;5029834;28;20106;-68
2022/03/20 02:05:01;;;;;;;8.70;5.38;;;5.90;63.00;;;;;;5029233;28;20060;-68
2022/03/20 02:07:28;;;;;;;9.15;5.07;;;5.80;63.40;;;;;;5024114;28;20402;-68
2022/03/20 02:09:53;;;;;;;6.78;4.50;;;5.80;63.50;;;;;;5024443;28;20025;-68
2022/03/20 02:12:19;;;;;;;6.75;4.35;;;5.80;63.50;;;;;;5029259;28;20036;-69
2022/03/20 02:14:44;;;;;;;7.85;4.70;;;5.80;63.50;;;;;;5029552;28;20031;-71
2022/03/20 02:17:11;;;;;;;6.15;4.32;;;5.80;63.60;;;;;;5026615;28;20017;-67
2022/03/20 02:19:38;;;;;;;7.63;4.45;;;5.90;63.60;;;;;;5032733;28;20032;-69
2022/03/20 02:22:04;;;;;;;7.47;4.57;;;5.90;63.80;;;;;;5031364;28;20104;-68
2022/03/20 02:24:41;;;;;;;6.70;4.15;;;5.80;63.70;;;;;;5037001;28;20033;-69
2022/03/20 02:27:16;;;;;;;6.35;4.32;;;5.80;64.20;;;;;;5031624;28;20021;-68
2022/03/20 02:29:43;;;;;;;9.30;5.70;;;5.70;65.10;;;;;;5031525;28;20036;-68
2022/03/20 02:32:12;;;;;;;9.65;5.00;;;5.70;66.00;;;;;;5039725;28;20017;-70
2022/03/20 02:34:39;;;;;;;7.22;4.63;;;5.60;66.50;;;;;;5030173;28;20676;-68
2022/03/20 02:37:05;;;;;;;7.03;4.78;;;5.60;66.10;;;;;;5035282;28;20025;-69
2022/03/20 02:39:32;;;;;;;7.70;5.13;;;5.70;65.90;;;;;;5029932;28;20021;-69
2022/03/20 02:42:02;;;;;;;6.40;4.40;;;5.60;65.90;;;;;;5039111;28;20037;-70
2022/03/20 02:45:07;;;;;;;8.40;4.60;;;5.70;65.60;;;;;;5032526;28;20030;-69
2022/03/20 02:47:38;;;;;;;9.32;4.75;;;5.60;65.90;;;;;;4967960;28;20113;-69
2022/03/20 02:50:15;;;;;;;8.10;4.97;;;5.60;66.00;;;;;;4964601;28;20031;-70
2022/03/20 02:52:48;;;;;;;8.18;5.25;;;5.60;66.20;;;;;;4998940;28;20037;-71
2022/03/20 02:55:14;;;;;;;;;;;5.60;66.80;;;;;;5026394;28;20041;-71
2022/03/20 02:57:40;;;;;;;7.15;5.10;;;5.50;66.80;;;;;;5025400;28;19995;-70
2022/03/20 03:00:07;;;;;;;6.70;4.45;;;5.50;66.80;;;;;;5026010;28;20025;-69
2022/03/20 03:02:45;;;;;;;8.70;5.85;;;5.50;66.40;;;;;;5026221;28;20041;-68
2022/03/20 03:05:14;;;;;;;9.50;6.10;;;5.50;66.80;;;;;;5042892;28;20032;-69
2022/03/20 03:13:11;;;;;;;8.57;6.07;;;5.40;67.40;;;;;;5026757;28;20092;-70
2022/03/20 03:15:36;;;;;;;10.00;6.40;;;5.40;67.30;;;;;;5020891;28;20026;-67
2022/03/20 03:18:03;;;;;;;9.63;5.30;;;5.40;67.20;;;;;;5025711;28;20036;-67
2022/03/20 03:20:28;;;;;;;12.05;7.38;;;5.40;66.90;;;;;;5026723;28;20025;-67
2022/03/20 03:22:54;;;;;;;12.13;7.40;;;5.40;67.20;;;;;;5020600;28;20026;-68
2022/03/20 03:25:21;;;;;;;10.93;6.63;;;5.40;67.10;;;;;;5020125;28;20441;-68
2022/03/20 03:27:47;;;;;;;11.43;7.22;;;5.40;67.20;;;;;;5021687;28;20052;-69
2022/03/20 03:30:13;;;;;;;12.60;8.27;;;5.30;67.10;;;;;;5022962;28;20368;-67
2022/03/20 03:32:42;;;;;;;10.43;6.85;;;5.30;67.40;;;;;;5020684;28;20107;-68
2022/03/20 03:37:53;;;;;;;10.20;7.57;;;5.30;67.00;;;;;;5028391;28;20068;-69
2022/03/20 03:40:19;;;;;;;10.05;6.60;;;5.30;67.00;;;;;;5027953;28;20491;-70
2022/03/20 03:42:44;;;;;;;10.20;7.22;;;5.30;66.80;;;;;;5027114;28;20042;-68
2022/03/20 03:45:10;;;;;;;10.57;6.95;;;5.30;66.90;;;;;;5027165;28;20092;-68
2022/03/20 03:47:36;;;;;;;12.05;7.43;;;5.30;66.70;;;;;;5025072;28;20013;-68
2022/03/20 03:50:01;;;;;;;12.80;7.68;;;5.30;66.50;;;;;;5028960;28;20546;-69
2022/03/20 03:52:27;;;;;;;12.43;8.90;;;5.30;66.40;;;;;;5026479;28;20468;-69
2022/03/20 03:54:52;;;;;;;12.85;8.38;;;5.30;66.40;;;;;;5027199;28;20101;-70
2022/03/20 03:57:19;;;;;;;14.80;9.68;;;5.30;66.50;;;;;;5024925;28;20079;-69
2022/03/20 03:59:45;;;;;;;13.25;8.75;;;5.30;66.50;;;;;;5024548;28;20740;-70
2022/03/20 04:02:11;;;;;;;11.65;8.38;;;5.20;66.50;;;;;;5026314;28;20523;-71
2022/03/20 04:04:36;;;;;;;15.88;9.80;;;5.30;66.20;;;;;;5029153;28;20029;-70
2022/03/20 04:07:03;;;;;;;11.65;8.70;;;5.30;66.20;;;;;;5025822;28;20479;-70
2022/03/20 04:09:29;;;;;;;14.07;9.07;;;5.30;66.20;;;;;;5025288;28;20546;-69
2022/03/20 04:11:55;;;;;;;16.83;10.43;;;5.30;66.10;;;;;;5023601;28;20671;-69
2022/03/20 04:14:21;;;;;;;13.70;9.27;;;5.30;65.80;;;;;;5027295;28;20108;-69
2022/03/20 04:16:47;;;;;;;12.50;9.10;;;5.40;65.60;;;;;;5025786;28;20067;-70
2022/03/20 04:19:12;;;;;;;17.30;10.93;;;5.40;65.50;;;;;;5022668;28;20032;-69
2022/03/20 04:21:39;;;;;;;19.05;9.80;;;5.40;65.20;;;;;;5026331;28;20040;-69
2022/03/20 04:24:07;;;;;;;12.40;8.98;;;5.40;65.00;;;;;;5025265;28;20013;-70
2022/03/20 04:26:34;;;;;;;14.98;10.32;;;5.40;64.90;;;;;;5024676;28;20037;-70
2022/03/20 04:28:59;;;;;;;15.98;10.93;;;5.40;64.80;;;;;;5022870;28;20040;-71
2022/03/20 04:31:25;;;;;;;17.58;12.13;;;5.40;64.60;;;;;;5022129;28;20479;-71
2022/03/20 04:33:53;;;;;;;17.33;11.55;;;5.40;64.60;;;;;;5022667;28;20045;-71
2022/03/20 04:36:24;;;;;;;18.90;11.68;;;5.30;64.40;;;;;;5025045;28;20083;-69
2022/03/20 04:38:54;;;;;;;16.38;11.13;;;5.40;64.40;;;;;;5024156;28;20022;-68
2022/03/20 04:41:21;;;;;;;12.00;8.63;;;5.30;64.10;;;;;;5023771;28;20025;-69
2022/03/20 04:43:48;;;;;;;15.63;10.32;;;5.40;63.80;;;;;;5028491;28;20488;-68
2022/03/20 04:46:14;;;;;;;13.98;9.65;;;5.50;63.70;;;;;;5019520;28;20033;-68
2022/03/20 04:59:57;;;;;;;16.40;11.73;;;5.40;63.10;;;;;;5011611;28;20056;-68
2022/03/20 05:02:23;;;;;;;16.20;11.18;;;5.40;63.00;;;;;;5015701;28;20487;-69
2022/03/20 05:04:49;;;;;;;16.15;10.55;;;5.40;63.00;;;;;;5026273;28;20057;-69
2022/03/20 05:07:15;;;;;;;14.98;10.68;;;5.40;62.80;;;;;;5025864;28;20022;-71
2022/03/20 05:15:10;;;;;;;17.27;12.30;;;5.50;62.10;;;;;;5021782;28;20063;-70
2022/03/20 05:17:36;;;;;;;18.63;11.40;;;5.50;62.00;;;;;;5022627;28;20038;-71
2022/03/20 05:20:03;;;;;;;17.83;12.10;;;5.40;62.00;;;;;;5028720;28;20021;-71
2022/03/20 05:22:30;;;;;;;20.20;13.13;;;5.40;62.00;;;;;;5036756;28;20033;-70
2022/03/20 05:24:56;;;;;;;15.75;11.18;;;5.40;62.00;;;;;;5040028;28;20456;-71
2022/03/20 05:27:22;;;;;;;15.88;11.55;;;5.40;62.00;;;;;;5036578;28;20041;-72
2022/03/20 05:29:47;;;;;;;18.90;11.55;;;5.40;61.90;;;;;;5034059;28;20017;-69
2022/03/20 05:32:13;;;;;;;14.23;9.98;;;5.30;61.70;;;;;;5032298;28;20029;-69
2022/03/20 05:34:39;;;;;;;16.20;10.98;;;5.40;61.70;;;;;;5030901;28;20040;-69
2022/03/20 05:37:07;;;;;;;15.73;11.85;;;5.40;61.30;;;;;;5023940;28;20026;-69
2022/03/20 05:39:33;;;;;;;17.08;11.73;;;5.40;61.20;;;;;;5025444;28;20407;-69
2022/03/20 05:41:59;;;;;;;15.70;10.85;;;5.40;61.20;;;;;;5029847;28;20147;-69
2022/03/20 05:44:26;;;;;;;18.40;13.02;;;5.40;61.10;;;;;;5024124;28;20100;-71
2022/03/20 05:46:54;;;;;;;14.45;10.77;;;5.40;60.90;;;;;;5030318;28;20055;-72
2022/03/20 05:49:22;;;;;;;16.50;12.45;;;5.40;60.90;;;;;;5024323;28;20033;-69
2022/03/20 05:51:48;;;;;;;16.77;12.00;;;5.30;60.80;;;;;;5023440;28;20021;-69
2022/03/20 05:54:15;;;;;;;17.00;11.70;;;5.30;60.80;;;;;;5027441;28;20053;-69
2022/03/20 05:59:39;;;;;;;16.38;11.77;;;5.40;61.30;;;;;;5006486;28;20091;-68
2022/03/20 06:02:08;;;;;;;15.38;11.68;;;5.40;60.70;;;;;;5026747;28;20017;-68
2022/03/20 06:04:33;;;;;;;17.33;12.18;;;5.30;61.30;;;;;;5028717;28;20022;-68
2022/03/20 06:06:59;;;;;;;16.02;11.82;;;5.30;60.60;;;;;;5029613;28;20022;-68
2022/03/20 06:09:25;;;;;;;15.57;11.02;;;5.30;60.40;;;;;;5029537;28;20499;-67
2022/03/20 06:11:51;;;;;;;20.90;12.98;;;5.30;60.30;;;;;;5028184;28;20579;-71
2022/03/20 06:14:17;;;;;;;14.70;10.40;;;5.30;60.20;;;;;;5026878;28;20014;-70
2022/03/20 06:16:45;;;;;;;14.88;10.88;;;5.30;60.20;;;;;;5027893;28;20124;-70
2022/03/20 06:19:11;;;;;;;16.17;10.88;;;5.40;60.10;;;;;;5027209;28;20538;-69
2022/03/20 06:21:36;;;;;;;17.40;12.20;;;5.40;59.90;;;;;;5024439;28;20057;-69
2022/03/20 06:24:03;;;;;;;15.27;11.13;;;5.50;59.80;;;;;;5025444;28;20024;-69
2022/03/20 06:26:28;;;;;;;16.17;11.23;;;5.40;59.80;;;;;;5027595;28;20029;-69
2022/03/20 06:28:53;;;;;;;15.52;11.23;;;5.60;59.40;;;;;;5026722;28;20087;-70
2022/03/20 06:31:19;;;;;;;17.90;12.32;;;5.60;59.20;;;;;;5027032;28;20117;-69
2022/03/20 06:33:46;;;;;;;17.55;12.27;;;5.70;59.00;;;;;;5026893;28;20102;-69
2022/03/20 06:36:13;;;;;;;18.35;12.63;;;5.70;58.70;;;;;;5024536;28;20735;-68
2022/03/20 06:38:39;;;;;;;21.90;14.13;;;5.80;58.40;;;;;;5027163;28;20033;-68
2022/03/20 06:41:08;;;;;;;17.35;12.52;;;5.70;58.10;;;;;;5028643;28;20033;-68
2022/03/20 06:43:38;;;;;;;18.73;12.45;;;5.70;58.10;;;;;;5028455;28;20033;-68
2022/03/20 06:46:05;;;;;;;17.80;13.00;;;5.80;57.90;;;;;;5028890;28;20462;-69
2022/03/20 06:48:31;;;;;;;21.88;13.98;;;5.80;57.70;;;;;;5029176;28;20018;-71
2022/03/20 06:50:57;;;;;;;19.88;13.90;;;5.80;57.10;;;;;;5026644;28;20034;-70
2022/03/20 06:53:22;;;;;;;15.88;10.85;;;5.80;57.00;;;;;;5025444;28;20021;-71
2022/03/20 06:55:48;;;;;;;18.75;12.93;;;5.80;57.10;;;;;;5025433;28;20022;-72
2022/03/20 06:58:15;;;;;;;16.48;10.73;;;5.90;56.70;;;;;;5028772;28;20048;-70
2022/03/20 07:00:41;;;;;;;19.15;12.27;;;6.00;56.80;;;;;;5029822;28;20026;-70
2022/03/20 07:03:08;;;;;;;16.33;11.30;;;6.10;56.60;;;;;;5023020;28;20052;-69
2022/03/20 07:05:35;;;;;;;20.20;13.40;;;6.10;56.20;;;;;;5021748;28;20377;-69
2022/03/20 07:08:02;;;;;;;18.85;13.82;;;6.10;55.40;;;;;;5024924;28;20021;-69
2022/03/20 07:10:28;;;;;;;15.20;10.65;;;6.10;55.50;;;;;;5025700;28;20096;-68
2022/03/20 07:15:40;;;;;;;19.42;12.85;;;6.10;55.30;;;;;;5022275;28;20413;-69
2022/03/20 07:18:06;;;;;;;18.15;13.15;;;6.10;55.20;;;;;;5026046;28;20112;-69
2022/03/20 07:20:32;;;;;;;17.58;12.15;;;6.00;55.10;;;;;;5024625;28;20105;-69
2022/03/20 07:23:00;;;;;;;16.00;11.02;;;6.10;55.20;;;;;;5026459;28;20060;-69
2022/03/20 07:30:56;;;;;;;20.17;14.02;;;6.10;54.30;;;;;;5025197;28;20569;-69
2022/03/20 07:33:25;;;;;;;24.88;15.73;;;6.20;54.30;;;;;;5025122;28;20040;-69
2022/03/20 07:35:51;;;;;;;21.25;13.80;;;6.20;53.90;;;;;;5027107;28;20021;-70
2022/03/20 07:38:17;;;;;;;23.98;14.43;;;6.20;53.80;;;;;;5026793;28;20028;-69
2022/03/20 07:40:42;;;;;;;18.23;12.93;;;6.10;53.30;;;;;;5026989;28;20032;-68
2022/03/20 07:43:08;;;;;;;17.83;12.75;;;6.20;53.60;;;;;;5022139;28;20033;-68
2022/03/20 07:45:34;;;;;;;19.00;13.20;;;6.20;53.40;;;;;;5020579;28;20034;-70
2022/03/20 07:48:00;;;;;;;23.85;15.68;;;6.20;53.20;;;;;;5024244;28;20025;-70
2022/03/20 07:50:25;;;;;;;19.85;14.13;;;6.30;52.60;;;;;;5023560;28;20022;-69
2022/03/20 07:52:51;;;;;;;21.00;15.48;;;6.30;52.50;;;;;;5027244;28;20072;-68
2022/03/20 07:55:17;;;;;;;21.63;14.93;;;6.40;52.00;;;;;;5022201;28;20025;-70
2022/03/20 07:57:44;;;;;;;21.85;15.25;;;6.40;52.30;;;;;;5025421;28;20029;-68
2022/03/20 08:00:11;;;;;;;23.48;15.13;;;6.50;51.40;;;;;;5026737;28;20033;-70
2022/03/20 08:02:37;;;;;;;18.15;12.73;;;6.50;50.70;;;;;;5025200;28;20497;-71
2022/03/20 08:05:02;;;;;;;21.40;15.15;;;6.50;51.20;;;;;;5028583;28;20099;-70
2022/03/20 08:07:28;;;;;;;21.77;15.45;;;6.60;50.50;;;;;;5025400;28;20018;-71
2022/03/20 08:09:53;;;;;;;20.70;14.48;;;6.50;50.10;;;;;;5025085;28;20026;-69
2022/03/20 08:12:19;;;;;;;23.08;15.18;;;6.50;50.50;;;;;;5025841;28;20021;-68
2022/03/20 08:14:44;;;;;;;22.08;14.50;;;6.50;50.50;;;;;;5022147;28;20033;-69
2022/03/20 08:17:10;;;;;;;20.77;14.75;;;6.50;50.70;;;;;;5024883;28;20021;-69
2022/03/20 08:19:36;;;;;;;30.65;16.35;;;6.50;50.20;;;;;;5027481;28;20475;-69
2022/03/20 08:22:05;;;;;;;21.60;14.70;;;6.50;49.80;;;;;;5027627;28;20488;-69
2022/03/20 08:24:30;;;;;;;20.40;14.13;;;6.50;49.80;;;;;;5024262;28;20139;-69
2022/03/20 08:26:57;;;;;;;17.77;12.90;;;6.50;50.10;;;;;;5024817;28;20025;-70
2022/03/20 08:29:23;;;;;;;22.75;15.40;;;6.70;50.30;;;;;;5022671;28;20499;-69
2022/03/20 08:31:48;;;;;;;25.08;16.48;;;6.80;49.60;;;;;;5022303;28;20091;-70
2022/03/20 08:34:16;;;;;;;22.30;15.18;;;6.80;49.00;;;;;;5022912;28;20393;-69
2022/03/20 08:36:42;;;;;;;19.50;12.77;;;6.80;49.10;;;;;;5026254;28;20714;-70
2022/03/20 08:39:08;;;;;;;20.73;14.27;;;6.80;49.50;;;;;;5030264;28;20026;-69
2022/03/20 08:41:34;;;;;;;21.20;13.45;;;7.00;49.40;;;;;;5027947;28;20024;-70
2022/03/20 08:44:04;;;;;;;24.08;15.77;;;7.10;49.00;;;;;;5030246;28;20099;-69
2022/03/20 08:46:31;;;;;;;24.52;15.93;;;7.30;48.30;;;;;;5031294;28;20030;-69
2022/03/20 08:48:57;;;;;;;23.13;15.98;;;7.30;47.90;;;;;;5037328;28;20498;-68
2022/03/20 08:51:23;;;;;;;21.95;14.98;;;7.30;47.60;;;;;;5029512;28;20025;-70
2022/03/20 08:53:49;;;;;;;17.08;12.45;;;7.40;47.80;;;;;;5030419;28;20651;-69
2022/03/20 08:56:15;;;;;;;21.80;15.43;;;7.50;48.10;;;;;;5027136;28;20030;-69
2022/03/20 08:58:41;;;;;;;23.45;15.65;;;7.50;47.40;;;;;;5037248;28;20081;-69
2022/03/20 09:01:07;;;;;;;21.60;14.63;;;7.50;47.30;;;;;;5038157;28;20041;-71
2022/03/20 09:03:33;;;;;;;22.77;15.55;;;7.50;47.40;;;;;;5036857;28;20031;-70
2022/03/20 09:05:58;;;;;;;24.35;16.35;;;7.50;47.40;;;;;;5043797;28;20025;-68
2022/03/20 09:08:24;;;;;;;21.77;15.35;;;7.50;47.10;;;;;;5034583;28;20030;-70
2022/03/20 09:10:51;;;;;;;22.52;16.35;;;7.50;47.10;;;;;;5029471;28;20079;-70
2022/03/20 09:13:16;;;;;;;21.65;15.57;;;7.50;46.70;;;;;;5025289;28;20031;-70
2022/03/20 09:15:42;;;;;;;21.48;15.32;;;7.50;46.80;;;;;;5032105;28;20042;-68
2022/03/20 09:20:51;;;;;;;24.08;16.13;;;7.50;46.60;;;;;;5031512;28;20083;-70
2022/03/20 09:23:17;;;;;;;22.95;16.10;;;7.60;46.40;;;;;;5026963;28;20021;-70
2022/03/20 09:25:43;;;;;;;22.27;15.65;;;7.70;46.30;;;;;;5028058;28;20030;-70
2022/03/20 09:28:11;;;;;;;21.73;15.82;;;7.70;46.50;;;;;;5030602;28;20029;-69
2022/03/20 09:30:39;;;;;;;23.23;15.73;;;7.70;46.30;;;;;;5031913;28;20392;-69
2022/03/20 09:33:06;;;;;;;25.13;16.95;;;7.70;45.80;;;;;;5029841;28;20078;-69
2022/03/20 09:35:32;;;;;;;27.15;17.50;;;7.70;45.80;;;;;;5024501;28;20041;-68
2022/03/20 09:37:58;;;;;;;21.88;15.35;;;7.70;45.90;;;;;;5028979;28;20029;-68
2022/03/20 09:40:24;;;;;;;23.85;17.10;;;7.80;46.10;;;;;;5029590;28;20028;-68
2022/03/20 09:42:50;;;;;;;22.77;15.88;;;7.90;46.10;;;;;;5029223;28;20492;-69
2022/03/20 09:45:18;;;;;;;23.58;16.55;;;8.00;46.10;;;;;;5033543;28;20032;-68
2022/03/20 09:47:44;;;;;;;22.52;15.73;;;8.10;46.00;;;;;;5026282;28;20025;-68
2022/03/20 09:50:11;;;;;;;26.65;17.65;;;8.30;45.80;;;;;;5033689;28;20025;-68
2022/03/20 09:52:38;;;;;;;26.55;18.45;;;8.50;45.30;;;;;;5035799;28;20096;-69
2022/03/20 09:55:06;;;;;;;26.60;19.15;;;8.50;44.80;;;;;;5023982;28;20126;-70
2022/03/20 09:57:32;;;;;;;25.08;17.50;;;8.50;44.70;;;;;;5025137;28;20076;-69
2022/03/20 10:00:01;;;;;;;24.67;16.95;;;8.60;44.30;;;;;;5043685;28;20025;-69
2022/03/20 10:02:27;;;;;;;26.65;16.45;;;8.70;44.20;;;;;;5030874;28;20009;-68
2022/03/20 10:05:04;;;;;;;24.23;17.00;;;8.70;44.30;;;;;;5032032;28;20139;-70
2022/03/20 10:07:36;;;;;;;23.77;15.77;;;8.90;44.30;;;;;;5028236;28;20467;-69
2022/03/20 10:10:14;;;;;;;25.80;18.60;;;9.10;44.20;;;;;;5032170;28;20021;-70
2022/03/20 10:12:44;;;;;;;25.42;18.45;;;9.10;43.60;;;;;;5034120;28;20025;-68
2022/03/20 10:15:25;;;;;;;23.35;17.08;;;9.10;43.10;;;;;;5032507;28;20104;-68
2022/03/20 10:18:24;;;;;;;25.88;17.83;;;9.10;43.60;;;;;;5033727;28;20036;-68
2022/03/20 10:20:58;;;;;;;23.30;17.27;;;9.20;43.50;;;;;;5038942;28;20060;-68
2022/03/20 10:23:39;;;;;;;28.70;18.38;;;9.30;43.60;;;;;;5042978;28;20038;-71
2022/03/20 10:26:13;;;;;;;22.45;16.67;;;9.40;43.30;;;;;;5031029;28;20032;-68
2022/03/20 10:28:41;;;;;;;26.08;18.40;;;9.40;43.50;;;;;;5027284;28;20029;-68
2022/03/20 10:31:15;;;;;;;22.95;16.63;;;9.50;42.70;;;;;;5031981;28;20059;-68
2022/03/20 10:33:41;;;;;;;25.67;18.48;;;9.50;43.20;;;;;;5028485;28;20021;-69
2022/03/20 10:36:17;;;;;;;25.13;18.10;;;9.60;43.20;;;;;;5029016;28;20018;-69
2022/03/20 10:38:48;;;;;;;24.35;16.30;;;9.70;43.40;;;;;;5030750;28;20033;-69
2022/03/20 10:41:21;;;;;;;24.65;18.33;;;9.70;43.10;;;;;;5032645;28;20074;-68
2022/03/20 10:43:48;;;;;;;27.02;19.25;;;9.60;42.90;;;;;;5033329;28;20030;-70
2022/03/20 10:46:19;;;;;;;27.52;19.42;;;9.60;43.20;;;;;;5028797;28;20104;-68
2022/03/20 10:48:46;;;;;;;27.40;19.70;;;9.50;43.10;;;;;;5022873;28;20027;-69
2022/03/20 10:51:12;;;;;;;26.77;20.20;;;9.60;43.20;;;;;;5027093;28;20104;-69
2022/03/20 10:53:57;;;;;;;27.85;19.45;;;9.50;43.40;;;;;;5029666;28;20152;-68
2022/03/20 10:56:22;;;;;;;27.35;19.23;;;9.50;43.20;;;;;;5023732;28;20139;-69
2022/03/20 10:58:49;;;;;;;26.73;19.50;;;9.40;43.20;;;;;;5023169;28;20026;-69
2022/03/20 11:01:14;;;;;;;24.25;17.92;;;9.40;43.60;;;;;;5024780;28;20029;-69
2022/03/20 11:03:40;;;;;;;26.80;18.63;;;9.40;43.90;;;;;;5026306;28;20026;-69
2022/03/20 11:06:10;;;;;;;26.63;17.38;;;9.40;43.70;;;;;;5026406;28;20124;-68
2022/03/20 11:08:39;;;;;;;32.38;20.88;;;9.50;44.00;;;;;;5030507;28;20017;-70
2022/03/20 11:11:10;;;;;;;25.08;17.58;;;9.40;43.20;;;;;;5023756;28;20018;-70
2022/03/20 11:13:38;;;;;;;27.63;19.27;;;9.40;44.00;;;;;;5024224;28;20088;-69
2022/03/20 11:16:05;;;;;;;28.45;20.60;;;9.40;43.50;;;;;;5031434;28;20045;-68
2022/03/20 11:18:33;;;;;;;25.38;18.13;;;9.20;43.60;;;;;;5023741;28;20025;-70
2022/03/20 11:21:01;;;;;;;26.42;19.13;;;9.20;44.00;;;;;;5026544;28;20040;-69
2022/03/20 11:23:30;;;;;;;24.73;17.90;;;9.30;44.30;;;;;;5026912;28;20017;-69
2022/03/20 11:25:57;;;;;;;23.67;17.75;;;9.40;44.40;;;;;;5027285;28;20036;-70
2022/03/20 11:28:23;;;;;;;24.60;19.05;;;9.30;44.00;;;;;;5025169;28;20037;-69
2022/03/20 11:30:50;;;;;;;25.83;17.77;;;9.40;44.20;;;;;;5021949;28;20555;-69
2022/03/20 11:33:21;;;;;;;24.45;17.45;;;9.40;44.50;;;;;;5023647;28;20204;-69
2022/03/20 11:35:46;;;;;;;24.45;17.80;;;9.40;44.40;;;;;;5026976;28;20037;-69
2022/03/20 11:38:21;;;;;;;21.33;15.32;;;9.40;44.50;;;;;;5027024;28;20029;-69
2022/03/20 11:41:07;;;;;;;27.65;19.30;;;9.50;44.70;;;;;;5023127;28;20077;-70
2022/03/20 11:43:35;;;;;;;30.88;20.15;;;9.50;44.60;;;;;;5026695;28;20030;-69
2022/03/20 11:46:20;;;;;;;24.05;16.42;;;9.50;44.60;;;;;;5026841;28;20022;-69
2022/03/20 11:49:15;;;;;;;23.48;15.77;;;9.60;44.90;;;;;;5026287;28;20033;-68
2022/03/20 11:51:58;;;;;;;24.63;18.25;;;9.70;44.90;;;;;;5022205;28;20017;-68
2022/03/20 11:54:50;;;;;;;26.60;19.77;;;9.80;44.90;;;;;;5026312;28;20051;-69
2022/03/20 11:57:25;;;;;;;;;;;9.80;44.70;;;;;;5027982;28;20021;-69
2022/03/20 11:59:54;;;;;;;26.13;18.77;;;9.80;44.70;;;;;;5016132;28;19923;-69
2022/03/20 12:02:45;;;;;;;27.23;20.15;;;9.80;45.20;;;;;;5023103;28;20021;-71
2022/03/20 12:05:36;;;;;;;27.40;19.52;;;9.70;45.20;;;;;;5020561;28;20535;-70
2022/03/20 12:08:41;;;;;;;28.33;19.60;;;9.70;45.70;;;;;;5028121;28;20392;-69
2022/03/20 12:11:16;;;;;;;23.88;17.20;;;9.70;45.00;;;;;;5027950;28;20598;-69
2022/03/20 12:13:50;;;;;;;28.25;19.38;;;9.80;45.10;;;;;;5022992;28;20037;-72
2022/03/20 12:16:44;;;;;;;29.63;21.33;;;9.90;45.00;;;;;;5021779;28;20392;-68
2022/03/20 12:19:12;;;;;;;27.00;19.45;;;9.90;45.20;;;;;;5022929;28;20025;-69
2022/03/20 12:21:54;;;;;;;29.63;21.17;;;9.90;45.10;;;;;;5021125;28;20018;-69
2022/03/20 12:24:34;;;;;;;28.10;19.50;;;9.80;44.90;;;;;;5021404;28;20095;-69
2022/03/20 12:27:18;;;;;;;26.45;18.85;;;9.90;45.00;;;;;;5026026;28;20026;-69
2022/03/20 12:29:45;;;;;;;26.70;17.83;;;9.90;45.10;;;;;;5023127;28;20030;-69
2022/03/20 12:32:15;;;;;;;26.88;19.13;;;9.90;44.90;;;;;;5028545;28;20036;-69
2022/03/20 12:34:45;;;;;;;28.27;20.42;;;9.90;45.00;;;;;;5034644;28;20027;-69
2022/03/20 12:37:37;;;;;;;23.73;17.63;;;9.90;44.50;;;;;;5027751;28;20037;-68
2022/03/20 12:40:07;;;;;;;22.98;17.10;;;9.90;44.60;;;;;;5030963;28;20045;-69
2022/03/20 12:42:36;;;;;;;21.30;16.00;;;9.90;44.70;;;;;;5032307;28;20056;-70
2022/03/20 12:45:04;;;;;;;25.80;17.50;;;10.00;44.80;;;;;;5029337;28;20037;-69
2022/03/20 12:47:30;;;;;;;25.85;18.98;;;10.10;44.80;;;;;;5031059;28;20013;-68
2022/03/20 12:50:07;;;;;;;26.48;18.42;;;10.20;44.60;;;;;;5027275;28;20056;-69
2022/03/20 12:52:34;;;;;;;22.17;16.80;;;10.20;44.60;;;;;;5025516;28;20052;-69
2022/03/20 12:55:04;;;;;;;20.48;15.27;;;10.20;44.70;;;;;;5030155;28;20476;-68
2022/03/20 12:57:42;;;;;;;21.25;15.55;;;10.30;44.90;;;;;;5022759;28;20650;-68
2022/03/20 13:00:12;;;;;;;23.90;17.77;;;10.40;44.90;;;;;;5030301;28;20060;-69
2022/03/20 13:03:03;;;;;;;23.30;17.13;;;10.40;44.70;;;;;;5027100;28;20025;-69
2022/03/20 13:05:33;;;;;;;26.48;18.27;;;10.40;44.90;;;;;;5025842;28;20026;-69
2022/03/20 13:07:59;;;;;;;28.95;20.23;;;10.30;44.60;;;;;;5028404;28;20096;-68
2022/03/20 13:10:32;;;;;;;26.02;19.23;;;10.30;44.60;;;;;;5030310;28;20104;-68
2022/03/20 13:13:01;;;;;;;23.73;17.25;;;10.20;44.90;;;;;;5034416;28;20029;-69
2022/03/20 13:15:29;;;;;;;24.27;16.77;;;10.30;45.10;;;;;;5024362;28;20052;-69
2022/03/20 13:17:55;;;;;;;18.40;13.38;;;10.20;45.20;;;;;;5027010;28;20073;-69
2022/03/20 13:20:25;;;;;;;22.50;16.85;;;10.30;45.30;;;;;;5032103;28;20032;-68
2022/03/20 13:22:51;;;;;;;28.45;20.27;;;10.30;45.30;;;;;;5032438;28;20552;-69
2022/03/20 13:25:19;;;;;;;26.02;17.20;;;10.20;45.30;;;;;;5032840;28;20032;-69
2022/03/20 13:27:48;;;;;;;20.00;14.38;;;10.10;45.50;;;;;;5030068;28;20385;-68